createdAt,value
2016-08-29T00:00:06.490Z,24.42
2016-08-29T00:01:06.514Z,24.5
2016-08-29T00:02:06.500Z,24.45
2016-08-29T00:03:06.513Z,24.35
2016-08-29T00:04:06.516Z,24.32
2016-08-29T00:05:06.516Z,24.33
2016-08-29T00:06:06.515Z,24.29
2016-08-29T00:07:06.530Z,24.32
2016-08-29T00:08:06.522Z,24.23
2016-08-29T00:09:06.520Z,24.3
2016-08-29T00:10:06.527Z,24.21
2016-08-29T00:11:06.537Z,24.17
2016-08-29T00:12:06.535Z,24.2
2016-08-29T00:13:06.540Z,24.17
2016-08-29T00:14:06.550Z,24.24
2016-08-29T00:15:07.255Z,24.13
2016-08-29T00:16:06.556Z,24.16
2016-08-29T00:17:06.579Z,24.1
2016-08-29T00:18:06.565Z,24.11
2016-08-29T00:19:06.579Z,24.05
2016-08-29T00:20:06.585Z,24.03
2016-08-29T00:21:06.582Z,24.03
2016-08-29T00:22:06.580Z,23.99
2016-08-29T00:23:06.589Z,23.96
2016-08-29T00:24:06.590Z,24.05
2016-08-29T00:25:06.599Z,24.02
2016-08-29T00:26:06.597Z,24.02
2016-08-29T00:27:06.598Z,23.95
2016-08-29T00:28:06.603Z,23.87
2016-08-29T00:29:06.606Z,23.96
2016-08-29T00:30:06.614Z,23.95
2016-08-29T00:31:06.614Z,23.96
2016-08-29T00:32:06.618Z,23.92
2016-08-29T00:33:06.621Z,23.86
2016-08-29T00:34:06.618Z,23.91
2016-08-29T00:35:06.629Z,23.92
2016-08-29T00:36:06.629Z,23.92
2016-08-29T00:37:06.630Z,23.86
2016-08-29T00:38:06.638Z,23.91
2016-08-29T00:39:06.641Z,23.88
2016-08-29T00:40:06.642Z,23.84
2016-08-29T00:41:06.649Z,23.91
2016-08-29T00:42:06.654Z,23.92
2016-08-29T00:43:06.654Z,23.88
2016-08-29T00:44:06.672Z,23.92
2016-08-29T00:45:06.672Z,23.81
2016-08-29T00:46:06.671Z,23.84
2016-08-29T00:47:06.672Z,23.8
2016-08-29T00:48:06.682Z,23.8
2016-08-29T00:49:06.695Z,23.8
2016-08-29T00:50:06.711Z,23.76
2016-08-29T00:51:06.695Z,23.78
2016-08-29T00:52:06.700Z,23.8
2016-08-29T00:53:06.698Z,23.8
2016-08-29T00:54:06.702Z,23.73
2016-08-29T00:55:06.702Z,23.69
2016-08-29T00:56:06.707Z,23.8
2016-08-29T00:57:06.710Z,23.73
2016-08-29T00:58:06.722Z,23.74
2016-08-29T00:59:06.730Z,23.74
2016-08-29T01:00:06.722Z,23.78
2016-08-29T01:01:06.725Z,23.66
2016-08-29T01:02:06.748Z,23.68
2016-08-29T01:03:06.739Z,23.66
2016-08-29T01:04:06.757Z,23.69
2016-08-29T01:05:06.745Z,23.76
2016-08-29T01:06:06.755Z,23.69
2016-08-29T01:07:06.776Z,23.78
2016-08-29T01:08:06.759Z,23.73
2016-08-29T01:09:06.759Z,23.74
2016-08-29T01:10:06.761Z,23.58
2016-08-29T01:11:06.778Z,23.63
2016-08-29T01:12:06.782Z,23.63
2016-08-29T01:13:06.777Z,23.65
2016-08-29T01:14:06.779Z,23.59
2016-08-29T01:15:06.783Z,23.66
2016-08-29T01:16:06.790Z,23.66
2016-08-29T01:17:06.788Z,23.59
2016-08-29T01:18:06.791Z,23.55
2016-08-29T01:19:06.794Z,23.56
2016-08-29T01:20:06.799Z,23.59
2016-08-29T01:21:06.802Z,23.55
2016-08-29T01:22:06.805Z,23.55
2016-08-29T01:23:06.807Z,23.55
2016-08-29T01:24:06.818Z,23.54
2016-08-29T01:25:06.824Z,23.47
2016-08-29T01:26:06.823Z,23.47
2016-08-29T01:27:06.824Z,23.5
2016-08-29T01:28:06.833Z,23.54
2016-08-29T01:29:06.833Z,23.43
2016-08-29T01:30:06.848Z,23.44
2016-08-29T01:31:06.855Z,23.5
2016-08-29T01:32:07.566Z,23.4
2016-08-29T01:33:06.850Z,23.4
2016-08-29T01:34:06.854Z,23.48
2016-08-29T01:35:06.858Z,23.5
2016-08-29T01:36:06.855Z,23.47
2016-08-29T01:37:06.872Z,23.54
2016-08-29T01:38:06.873Z,23.41
2016-08-29T01:39:06.874Z,23.44
2016-08-29T01:40:06.873Z,23.5
2016-08-29T01:41:06.876Z,23.46
2016-08-29T01:42:06.886Z,23.41
2016-08-29T01:43:06.887Z,23.5
2016-08-29T01:44:06.899Z,23.4
2016-08-29T01:45:06.899Z,23.37
2016-08-29T01:46:06.902Z,23.48
2016-08-29T01:47:06.898Z,23.47
2016-08-29T01:48:06.915Z,23.4
2016-08-29T01:49:06.906Z,23.47
2016-08-29T01:50:06.924Z,23.43
2016-08-29T01:51:06.915Z,23.43
2016-08-29T01:52:06.920Z,23.34
2016-08-29T01:53:06.933Z,23.4
2016-08-29T01:54:06.937Z,23.4
2016-08-29T01:55:06.932Z,23.36
2016-08-29T01:56:06.963Z,23.37
2016-08-29T01:57:06.937Z,23.34
2016-08-29T01:58:06.939Z,23.34
2016-08-29T01:59:06.951Z,23.34
2016-08-29T02:00:06.948Z,23.24
2016-08-29T02:01:06.951Z,23.31
2016-08-29T02:02:06.980Z,23.15
2016-08-29T02:03:06.978Z,23.24
2016-08-29T02:04:06.980Z,23.23
2016-08-29T02:05:06.969Z,23.21
2016-08-29T02:06:06.978Z,23.18
2016-08-29T02:07:06.982Z,23.15
2016-08-29T02:08:06.981Z,23.18
2016-08-29T02:09:06.983Z,23.15
2016-08-29T02:10:06.983Z,23.08
2016-08-29T02:11:07.001Z,23.06
2016-08-29T02:12:07.002Z,23.02
2016-08-29T02:13:07.003Z,22.98
2016-08-29T02:14:07.003Z,22.99
2016-08-29T02:15:07.009Z,23.02
2016-08-29T02:16:07.010Z,22.96
2016-08-29T02:17:07.014Z,22.96
2016-08-29T02:18:07.015Z,22.88
2016-08-29T02:19:07.017Z,22.88
2016-08-29T02:20:07.028Z,22.88
2016-08-29T02:21:07.028Z,22.85
2016-08-29T02:22:07.735Z,22.87
2016-08-29T02:23:07.034Z,22.87
2016-08-29T02:24:07.052Z,22.88
2016-08-29T02:25:07.044Z,22.87
2016-08-29T02:26:07.047Z,22.84
2016-08-29T02:27:07.054Z,22.83
2016-08-29T02:28:07.051Z,22.87
2016-08-29T02:29:07.068Z,22.81
2016-08-29T02:30:07.062Z,22.81
2016-08-29T02:31:07.061Z,22.88
2016-08-29T02:32:07.067Z,22.84
2016-08-29T02:33:07.092Z,22.78
2016-08-29T02:34:07.070Z,22.76
2016-08-29T02:35:07.088Z,22.76
2016-08-29T02:36:07.091Z,22.83
2016-08-29T02:37:07.099Z,22.76
2016-08-29T02:38:07.097Z,22.81
2016-08-29T02:39:07.110Z,22.8
2016-08-29T02:40:07.101Z,22.73
2016-08-29T02:41:07.098Z,22.72
2016-08-29T02:42:07.103Z,22.73
2016-08-29T02:43:07.110Z,22.68
2016-08-29T02:44:07.112Z,22.72
2016-08-29T02:45:07.111Z,22.76
2016-08-29T02:46:07.117Z,22.73
2016-08-29T02:47:07.117Z,22.81
2016-08-29T02:48:07.133Z,22.8
2016-08-29T02:49:07.126Z,22.76
2016-08-29T02:50:07.130Z,22.81
2016-08-29T02:51:07.135Z,22.83
2016-08-29T02:52:07.138Z,22.76
2016-08-29T02:53:07.139Z,22.83
2016-08-29T02:54:07.195Z,22.85
2016-08-29T02:55:07.169Z,22.8
2016-08-29T02:56:07.167Z,22.88
2016-08-29T02:57:07.167Z,22.83
2016-08-29T02:58:07.172Z,22.84
2016-08-29T02:59:07.167Z,22.8
2016-08-29T03:00:07.171Z,22.8
2016-08-29T03:01:07.182Z,22.87
2016-08-29T03:02:07.169Z,22.8
2016-08-29T03:03:07.178Z,22.84
2016-08-29T03:04:07.176Z,22.85
2016-08-29T03:05:07.180Z,22.81
2016-08-29T03:06:07.200Z,22.83
2016-08-29T03:07:07.205Z,22.83
2016-08-29T03:08:07.199Z,22.84
2016-08-29T03:09:07.413Z,22.8
2016-08-29T03:10:07.200Z,22.81
2016-08-29T03:11:07.224Z,22.83
2016-08-29T03:12:07.212Z,22.76
2016-08-29T03:13:07.231Z,22.76
2016-08-29T03:14:07.222Z,22.73
2016-08-29T03:15:07.216Z,22.7
2016-08-29T03:16:07.241Z,22.73
2016-08-29T03:17:07.224Z,22.7
2016-08-29T03:18:07.234Z,22.8
2016-08-29T03:19:07.249Z,22.66
2016-08-29T03:20:07.283Z,22.73
2016-08-29T03:21:07.245Z,22.72
2016-08-29T03:22:07.255Z,22.76
2016-08-29T03:23:07.249Z,22.76
2016-08-29T03:24:07.250Z,22.7
2016-08-29T03:25:07.251Z,22.8
2016-08-29T03:26:07.289Z,22.8
2016-08-29T03:27:07.259Z,22.78
2016-08-29T03:28:07.264Z,22.8
2016-08-29T03:29:07.266Z,22.8
2016-08-29T03:30:07.305Z,22.84
2016-08-29T03:31:07.273Z,22.91
2016-08-29T03:32:07.283Z,22.83
2016-08-29T03:33:07.282Z,22.87
2016-08-29T03:34:07.291Z,22.87
2016-08-29T03:35:07.285Z,22.85
2016-08-29T03:36:07.293Z,22.87
2016-08-29T03:37:07.292Z,22.85
2016-08-29T03:38:07.297Z,22.85
2016-08-29T03:39:07.304Z,22.87
2016-08-29T03:40:07.329Z,22.88
2016-08-29T03:41:07.305Z,22.87
2016-08-29T03:42:07.311Z,22.84
2016-08-29T03:43:07.316Z,22.93
2016-08-29T03:44:07.320Z,22.81
2016-08-29T03:45:07.489Z,22.78
2016-08-29T03:46:07.328Z,22.81
2016-08-29T03:47:07.330Z,22.84
2016-08-29T03:48:07.330Z,22.76
2016-08-29T03:49:07.338Z,22.76
2016-08-29T03:50:07.352Z,22.8
2016-08-29T03:51:07.351Z,22.76
2016-08-29T03:52:07.348Z,22.8
2016-08-29T03:53:07.349Z,22.73
2016-08-29T03:54:07.366Z,22.76
2016-08-29T03:55:07.364Z,22.65
2016-08-29T03:56:07.362Z,22.62
2016-08-29T03:57:07.373Z,22.62
2016-08-29T03:58:07.368Z,22.66
2016-08-29T03:59:07.378Z,22.65
2016-08-29T04:00:07.565Z,22.65
2016-08-29T04:01:08.085Z,22.63
2016-08-29T04:02:08.099Z,22.62
2016-08-29T04:03:07.387Z,22.53
2016-08-29T04:04:07.393Z,22.59
2016-08-29T04:05:07.390Z,22.62
2016-08-29T04:06:07.400Z,22.57
2016-08-29T04:07:07.404Z,22.51
2016-08-29T04:08:07.400Z,22.45
2016-08-29T04:09:07.412Z,22.5
2016-08-29T04:10:07.414Z,22.43
2016-08-29T04:11:07.412Z,22.44
2016-08-29T04:12:07.415Z,22.55
2016-08-29T04:13:07.419Z,22.43
2016-08-29T04:14:07.426Z,22.44
2016-08-29T04:15:07.429Z,22.48
2016-08-29T04:16:07.429Z,22.35
2016-08-29T04:17:07.441Z,22.36
2016-08-29T04:18:07.437Z,22.3
2016-08-29T04:19:07.439Z,22.33
2016-08-29T04:20:08.257Z,22.3
2016-08-29T04:21:07.443Z,22.3
2016-08-29T04:22:07.444Z,22.29
2016-08-29T04:23:07.452Z,22.33
2016-08-29T04:24:07.456Z,22.33
2016-08-29T04:25:07.460Z,22.33
2016-08-29T04:26:07.464Z,22.32
2016-08-29T04:27:07.475Z,22.32
2016-08-29T04:28:07.473Z,22.36
2016-08-29T04:29:07.472Z,22.33
2016-08-29T04:30:07.494Z,22.3
2016-08-29T04:31:07.489Z,22.3
2016-08-29T04:32:07.503Z,22.35
2016-08-29T04:33:07.487Z,22.29
2016-08-29T04:34:07.512Z,22.3
2016-08-29T04:35:07.498Z,22.38
2016-08-29T04:36:07.502Z,22.35
2016-08-29T04:37:07.508Z,22.33
2016-08-29T04:38:08.215Z,22.35
2016-08-29T04:39:08.212Z,22.3
2016-08-29T04:40:07.517Z,22.3
2016-08-29T04:41:07.527Z,22.26
2016-08-29T04:42:07.524Z,22.29
2016-08-29T04:43:07.525Z,22.3
2016-08-29T04:44:07.524Z,22.43
2016-08-29T04:45:07.530Z,22.36
2016-08-29T04:46:07.532Z,22.36
2016-08-29T04:47:07.532Z,22.43
2016-08-29T04:48:07.538Z,22.45
2016-08-29T04:49:07.537Z,22.43
2016-08-29T04:50:09.113Z,22.44
2016-08-29T04:51:07.549Z,22.43
2016-08-29T04:52:07.566Z,22.48
2016-08-29T04:53:07.580Z,22.47
2016-08-29T04:54:07.564Z,22.47
2016-08-29T04:55:07.569Z,22.44
2016-08-29T04:56:07.567Z,22.48
2016-08-29T04:57:07.567Z,22.44
2016-08-29T04:58:08.278Z,22.44
2016-08-29T04:59:07.569Z,22.47
2016-08-29T05:00:07.578Z,22.45
2016-08-29T05:01:07.689Z,22.45
2016-08-29T05:02:07.584Z,22.45
2016-08-29T05:03:07.594Z,22.53
2016-08-29T05:04:07.590Z,22.45
2016-08-29T05:05:07.592Z,22.54
2016-08-29T05:06:07.609Z,22.54
2016-08-29T05:07:07.693Z,22.51
2016-08-29T05:08:07.601Z,22.54
2016-08-29T05:09:07.605Z,22.65
2016-08-29T05:10:07.610Z,22.63
2016-08-29T05:11:07.613Z,22.59
2016-08-29T05:12:07.615Z,22.57
2016-08-29T05:13:07.617Z,22.6
2016-08-29T05:14:07.625Z,22.65
2016-08-29T05:15:07.640Z,22.59
2016-08-29T05:16:07.629Z,22.55
2016-08-29T05:17:07.655Z,22.59
2016-08-29T05:18:07.637Z,22.62
2016-08-29T05:19:07.640Z,22.6
2016-08-29T05:20:07.644Z,22.63
2016-08-29T05:21:07.660Z,22.63
2016-08-29T05:22:07.655Z,22.59
2016-08-29T05:23:07.665Z,22.66
2016-08-29T05:24:07.671Z,22.72
2016-08-29T05:25:07.660Z,22.72
2016-08-29T05:26:07.665Z,22.84
2016-08-29T05:27:07.664Z,22.94
2016-08-29T05:28:07.684Z,23.03
2016-08-29T05:29:07.682Z,23.13
2016-08-29T05:30:07.727Z,23.17
2016-08-29T05:31:07.684Z,23.41
2016-08-29T05:32:07.694Z,23.5
2016-08-29T05:33:07.686Z,23.61
2016-08-29T05:34:07.693Z,23.65
2016-08-29T05:35:07.696Z,23.71
2016-08-29T05:36:08.413Z,23.86
2016-08-29T05:37:07.701Z,23.83
2016-08-29T05:38:07.707Z,23.87
2016-08-29T05:39:07.710Z,23.95
2016-08-29T05:40:07.767Z,23.87
2016-08-29T05:41:07.716Z,23.93
2016-08-29T05:42:07.731Z,23.86
2016-08-29T05:43:07.727Z,23.96
2016-08-29T05:44:07.729Z,23.93
2016-08-29T05:45:07.736Z,23.99
2016-08-29T05:46:07.740Z,23.95
2016-08-29T05:47:07.755Z,23.95
2016-08-29T05:48:07.751Z,23.98
2016-08-29T05:49:07.760Z,23.95
2016-08-29T05:50:07.757Z,23.98
2016-08-29T05:51:07.758Z,23.99
2016-08-29T05:52:07.763Z,24.01
2016-08-29T05:53:07.768Z,24.02
2016-08-29T05:54:10.174Z,24.05
2016-08-29T05:55:07.774Z,24.16
2016-08-29T05:56:07.783Z,24.06
2016-08-29T05:57:07.796Z,24.11
2016-08-29T05:58:07.794Z,24.02
2016-08-29T05:59:07.810Z,24.13
2016-08-29T06:00:08.076Z,24.14
2016-08-29T06:01:07.914Z,24.17
2016-08-29T06:02:07.815Z,24.16
2016-08-29T06:03:07.808Z,24.17
2016-08-29T06:04:07.843Z,24.18
2016-08-29T06:05:07.826Z,24.28
2016-08-29T06:06:07.821Z,24.32
2016-08-29T06:07:07.830Z,24.3
2016-08-29T06:08:07.827Z,24.24
2016-08-29T06:09:07.845Z,24.38
2016-08-29T06:10:07.838Z,24.33
2016-08-29T06:11:07.840Z,24.4
2016-08-29T06:12:07.865Z,24.4
2016-08-29T06:13:07.855Z,24.47
2016-08-29T06:14:07.865Z,24.51
2016-08-29T06:15:09.435Z,24.48
2016-08-29T06:16:07.890Z,24.47
2016-08-29T06:17:07.884Z,24.48
2016-08-29T06:18:07.888Z,24.45
2016-08-29T06:19:07.887Z,24.48
2016-08-29T06:20:07.891Z,24.47
2016-08-29T06:21:07.889Z,24.48
2016-08-29T06:22:07.894Z,24.43
2016-08-29T06:23:07.898Z,24.51
2016-08-29T06:24:07.898Z,24.35
2016-08-29T06:25:07.921Z,24.32
2016-08-29T06:26:07.923Z,24.43
2016-08-29T06:27:07.933Z,24.45
2016-08-29T06:28:07.931Z,24.4
2016-08-29T06:29:07.940Z,24.47
2016-08-29T06:30:08.782Z,24.55
2016-08-29T06:31:07.933Z,24.5
2016-08-29T06:32:07.935Z,24.6
2016-08-29T06:33:07.942Z,24.65
2016-08-29T06:34:07.945Z,24.84
2016-08-29T06:35:09.215Z,24.86
2016-08-29T06:36:07.950Z,24.93
2016-08-29T06:37:07.961Z,24.89
2016-08-29T06:38:07.956Z,24.95
2016-08-29T06:39:07.983Z,25.08
2016-08-29T06:40:07.982Z,25.22
2016-08-29T06:41:07.979Z,25.4
2016-08-29T06:42:07.981Z,25.58
2016-08-29T06:43:08.010Z,25.81
2016-08-29T06:44:07.986Z,26.22
2016-08-29T06:45:07.994Z,26.52
2016-08-29T06:46:07.999Z,26.68
2016-08-29T06:47:08.005Z,26.95
2016-08-29T06:48:08.013Z,27.17
2016-08-29T06:49:08.012Z,27.7
2016-08-29T06:50:08.850Z,28.29
2016-08-29T06:51:08.022Z,28.84
2016-08-29T06:52:08.027Z,29.26
2016-08-29T06:53:08.042Z,29.59
2016-08-29T06:54:08.038Z,29.54
2016-08-29T06:55:08.134Z,29.19
2016-08-29T06:56:08.066Z,29.1
2016-08-29T06:57:08.059Z,29.02
2016-08-29T06:58:08.066Z,29.14
2016-08-29T06:59:08.079Z,29.16
2016-08-29T07:00:09.143Z,29.16
2016-08-29T07:01:08.249Z,29.19
2016-08-29T07:02:08.100Z,29.04
2016-08-29T07:03:08.117Z,28.66
2016-08-29T07:04:08.107Z,28.35
2016-08-29T07:05:08.315Z,28.11
2016-08-29T07:06:08.130Z,27.7
2016-08-29T07:07:08.127Z,27.44
2016-08-29T07:08:08.133Z,27.1
2016-08-29T07:09:08.143Z,26.89
2016-08-29T07:10:08.208Z,26.63
2016-08-29T07:11:08.165Z,26.56
2016-08-29T07:12:08.164Z,26.51
2016-08-29T07:13:08.165Z,26.44
2016-08-29T07:14:08.169Z,26.47
2016-08-29T07:15:08.437Z,26.37
2016-08-29T07:16:08.181Z,26.28
2016-08-29T07:17:08.194Z,26.37
2016-08-29T07:18:08.209Z,26.33
2016-08-29T07:19:08.201Z,26.37
2016-08-29T07:20:08.262Z,26.31
2016-08-29T07:21:08.227Z,26.26
2016-08-29T07:22:08.234Z,26.31
2016-08-29T07:23:08.229Z,26.22
2016-08-29T07:24:08.939Z,26.1
2016-08-29T07:25:09.076Z,26.02
2016-08-29T07:26:08.252Z,25.95
2016-08-29T07:27:08.250Z,25.99
2016-08-29T07:28:08.251Z,25.87
2016-08-29T07:29:08.264Z,25.96
2016-08-29T07:30:08.324Z,25.9
2016-08-29T07:31:08.279Z,25.93
2016-08-29T07:32:08.290Z,25.96
2016-08-29T07:33:08.284Z,25.95
2016-08-29T07:34:08.300Z,25.9
2016-08-29T07:35:08.374Z,25.91
2016-08-29T07:36:08.312Z,25.98
2016-08-29T07:37:08.300Z,26.06
2016-08-29T07:38:08.317Z,26.03
2016-08-29T07:39:08.318Z,26.05
2016-08-29T07:40:08.328Z,25.95
2016-08-29T07:41:08.334Z,25.96
2016-08-29T07:42:08.349Z,25.91
2016-08-29T07:43:08.346Z,25.93
2016-08-29T07:44:08.355Z,25.83
2016-08-29T07:45:08.378Z,25.73
2016-08-29T07:46:08.357Z,25.63
2016-08-29T07:47:08.356Z,25.6
2016-08-29T07:48:08.388Z,25.47
2016-08-29T07:49:08.367Z,25.47
2016-08-29T07:50:08.414Z,25.32
2016-08-29T07:51:08.385Z,25.26
2016-08-29T07:52:08.383Z,25.18
2016-08-29T07:53:08.398Z,25.22
2016-08-29T07:54:08.400Z,25.06
2016-08-29T07:55:08.712Z,25.03
2016-08-29T07:56:08.402Z,25.01
2016-08-29T07:57:08.449Z,25.03
2016-08-29T07:58:08.415Z,25.06
2016-08-29T07:59:08.412Z,25.06
2016-08-29T08:00:13.734Z,25.08
2016-08-29T08:01:08.585Z,25.07
2016-08-29T08:02:08.439Z,25.14
2016-08-29T08:03:08.439Z,25.21
2016-08-29T08:04:08.440Z,25.18
2016-08-29T08:05:08.449Z,25.29
2016-08-29T08:06:08.460Z,25.38
2016-08-29T08:07:08.443Z,25.32
2016-08-29T08:08:08.453Z,25.46
2016-08-29T08:09:08.452Z,25.51
2016-08-29T08:10:09.308Z,25.46
2016-08-29T08:11:08.474Z,25.44
2016-08-29T08:12:08.470Z,25.43
2016-08-29T08:13:08.477Z,25.44
2016-08-29T08:14:08.499Z,25.59
2016-08-29T08:15:09.648Z,25.54
2016-08-29T08:16:08.501Z,25.48
2016-08-29T08:17:08.551Z,25.51
2016-08-29T08:18:08.517Z,25.69
2016-08-29T08:19:08.509Z,25.84
2016-08-29T08:20:08.635Z,26.06
2016-08-29T08:21:08.517Z,26.34
2016-08-29T08:22:08.534Z,26.55
2016-08-29T08:23:08.537Z,26.78
2016-08-29T08:24:08.532Z,26.7
2016-08-29T08:25:09.437Z,26.63
2016-08-29T08:26:09.262Z,26.52
2016-08-29T08:27:08.560Z,26.51
2016-08-29T08:28:08.566Z,26.47
2016-08-29T08:29:09.287Z,26.47
2016-08-29T08:30:11.566Z,26.48
2016-08-29T08:31:09.285Z,26.59
2016-08-29T08:32:08.607Z,26.95
2016-08-29T08:33:08.585Z,27.25
2016-08-29T08:34:08.593Z,27.51
2016-08-29T08:35:08.631Z,27.64
2016-08-29T08:36:08.609Z,27.8
2016-08-29T08:37:08.609Z,27.83
2016-08-29T08:38:08.605Z,27.74
2016-08-29T08:39:08.617Z,27.6
2016-08-29T08:40:08.748Z,27.48
2016-08-29T08:41:08.620Z,27.4
2016-08-29T08:42:08.627Z,27.25
2016-08-29T08:43:08.649Z,27.21
2016-08-29T08:44:08.639Z,27.1
2016-08-29T08:45:09.298Z,26.97
2016-08-29T08:46:08.664Z,26.95
2016-08-29T08:47:08.680Z,26.89
2016-08-29T08:48:08.678Z,26.63
2016-08-29T08:49:08.676Z,26.47
2016-08-29T08:50:08.788Z,26.43
2016-08-29T08:51:08.690Z,26.31
2016-08-29T08:52:08.691Z,26.28
2016-08-29T08:53:08.689Z,26.18
2016-08-29T08:54:08.694Z,26.16
2016-08-29T08:55:09.586Z,26.21
2016-08-29T08:56:08.704Z,26.21
2016-08-29T08:57:08.714Z,26.22
2016-08-29T08:58:08.725Z,26.1
2016-08-29T08:59:08.790Z,26.05
2016-08-29T09:00:08.855Z,25.98
2016-08-29T09:01:08.791Z,25.84
2016-08-29T09:02:08.746Z,25.72
2016-08-29T09:03:08.747Z,25.65
2016-08-29T09:04:08.748Z,25.72
2016-08-29T09:05:08.843Z,25.73
2016-08-29T09:06:08.771Z,25.69
2016-08-29T09:07:08.764Z,25.84
2016-08-29T09:08:08.770Z,25.91
2016-08-29T09:09:08.791Z,25.93
2016-08-29T09:10:08.908Z,26.09
2016-08-29T09:11:08.786Z,26.19
2016-08-29T09:12:08.791Z,26.26
2016-08-29T09:13:09.691Z,26.25
2016-08-29T09:14:08.803Z,26.41
2016-08-29T09:15:09.645Z,26.44
2016-08-29T09:16:08.808Z,26.58
2016-08-29T09:17:08.844Z,26.58
2016-08-29T09:18:08.826Z,26.6
2016-08-29T09:19:08.829Z,26.66
2016-08-29T09:20:08.919Z,26.71
2016-08-29T09:21:08.844Z,26.7
2016-08-29T09:22:08.846Z,26.7
2016-08-29T09:23:08.857Z,26.84
2016-08-29T09:24:08.858Z,26.92
2016-08-29T09:25:08.949Z,27.1
2016-08-29T09:26:08.863Z,27.21
2016-08-29T09:27:08.870Z,27.25
2016-08-29T09:28:08.895Z,27.29
2016-08-29T09:29:08.894Z,27.22
2016-08-29T09:30:10.557Z,27.26
2016-08-29T09:31:09.607Z,27.36
2016-08-29T09:32:08.904Z,27.4
2016-08-29T09:33:08.906Z,27.37
2016-08-29T09:34:08.920Z,27.29
2016-08-29T09:35:09.856Z,27.32
2016-08-29T09:36:08.991Z,27.18
2016-08-29T09:37:08.930Z,27.02
2016-08-29T09:38:08.941Z,26.97
2016-08-29T09:39:08.940Z,26.84
2016-08-29T09:40:09.593Z,26.75
2016-08-29T09:41:08.946Z,26.74
2016-08-29T09:42:08.963Z,26.75
2016-08-29T09:43:08.965Z,26.68
2016-08-29T09:44:08.960Z,26.74
2016-08-29T09:45:09.216Z,26.73
2016-08-29T09:46:09.004Z,26.84
2016-08-29T09:47:08.980Z,26.81
2016-08-29T09:48:08.987Z,26.88
2016-08-29T09:49:09.011Z,26.81
2016-08-29T09:50:09.173Z,26.9
2016-08-29T09:51:09.002Z,26.95
2016-08-29T09:52:09.013Z,27.07
2016-08-29T09:53:09.059Z,27.08
2016-08-29T09:54:09.019Z,27.14
2016-08-29T09:55:09.214Z,27.12
2016-08-29T09:56:09.037Z,27.05
2016-08-29T09:57:09.060Z,27
2016-08-29T09:58:09.058Z,26.93
2016-08-29T09:59:09.064Z,27
2016-08-29T10:00:09.192Z,26.84
2016-08-29T10:01:09.116Z,26.83
2016-08-29T10:02:09.068Z,26.85
2016-08-29T10:03:09.082Z,26.9
2016-08-29T10:04:09.074Z,26.9
2016-08-29T10:05:09.439Z,26.89
2016-08-29T10:06:09.085Z,26.88
2016-08-29T10:07:09.091Z,26.92
2016-08-29T10:08:09.095Z,26.96
2016-08-29T10:09:09.099Z,27.03
2016-08-29T10:10:09.310Z,27
2016-08-29T10:11:09.153Z,26.92
2016-08-29T10:12:09.157Z,26.96
2016-08-29T10:13:09.124Z,27.02
2016-08-29T10:14:09.129Z,27.05
2016-08-29T10:15:13.101Z,27.08
2016-08-29T10:16:09.154Z,26.99
2016-08-29T10:17:09.147Z,26.97
2016-08-29T10:18:09.151Z,26.96
2016-08-29T10:19:09.154Z,26.93
2016-08-29T10:20:09.302Z,26.81
2016-08-29T10:21:09.167Z,26.81
2016-08-29T10:22:09.179Z,26.81
2016-08-29T10:23:09.183Z,26.95
2016-08-29T10:24:09.181Z,26.9
2016-08-29T10:25:09.413Z,26.96
2016-08-29T10:26:09.223Z,27
2016-08-29T10:27:09.207Z,27.14
2016-08-29T10:28:09.229Z,27.26
2016-08-29T10:29:09.210Z,27.29
2016-08-29T10:30:10.516Z,27.4
2016-08-29T10:31:09.215Z,27.49
2016-08-29T10:32:09.225Z,27.52
2016-08-29T10:33:09.230Z,27.37
2016-08-29T10:34:09.245Z,27.2
2016-08-29T10:35:10.911Z,27.15
2016-08-29T10:36:09.957Z,27.08
2016-08-29T10:37:09.252Z,27.05
2016-08-29T10:38:09.260Z,26.93
2016-08-29T10:39:10.013Z,27.05
2016-08-29T10:40:10.042Z,26.81
2016-08-29T10:41:09.279Z,26.66
2016-08-29T10:42:09.286Z,26.68
2016-08-29T10:43:09.290Z,26.65
2016-08-29T10:44:09.304Z,26.7
2016-08-29T10:45:09.660Z,26.95
2016-08-29T10:46:09.305Z,26.95
2016-08-29T10:47:09.309Z,27.05
2016-08-29T10:48:09.333Z,27.03
2016-08-29T10:49:09.318Z,26.99
2016-08-29T10:50:10.397Z,27.05
2016-08-29T10:51:09.326Z,27.11
2016-08-29T10:52:09.332Z,27.11
2016-08-29T10:53:09.338Z,27.18
2016-08-29T10:54:09.343Z,27.33
2016-08-29T10:55:09.491Z,27.37
2016-08-29T10:56:09.377Z,27.3
2016-08-29T10:57:09.356Z,27.22
2016-08-29T10:58:09.363Z,27.12
2016-08-29T10:59:09.368Z,27.08
2016-08-29T11:00:09.626Z,27.08
2016-08-29T11:01:09.584Z,27.07
2016-08-29T11:02:09.385Z,26.97
2016-08-29T11:03:09.392Z,26.99
2016-08-29T11:04:09.399Z,26.83
2016-08-29T11:05:09.820Z,26.73
2016-08-29T11:06:09.420Z,26.63
2016-08-29T11:07:09.537Z,26.71
2016-08-29T11:08:09.421Z,26.73
2016-08-29T11:09:09.423Z,26.68
2016-08-29T11:10:09.586Z,26.89
2016-08-29T11:11:09.444Z,26.9
2016-08-29T11:12:09.441Z,27.02
2016-08-29T11:13:10.150Z,27.02
2016-08-29T11:14:09.450Z,27.07
2016-08-29T11:15:09.643Z,26.9
2016-08-29T11:16:09.473Z,26.95
2016-08-29T11:17:09.464Z,27
2016-08-29T11:18:09.471Z,27.1
2016-08-29T11:19:09.475Z,27.08
2016-08-29T11:20:09.846Z,26.95
2016-08-29T11:21:09.487Z,27.02
2016-08-29T11:22:09.490Z,26.97
2016-08-29T11:23:09.510Z,27.03
2016-08-29T11:24:09.768Z,27.05
2016-08-29T11:25:10.245Z,26.92
2016-08-29T11:26:09.514Z,26.95
2016-08-29T11:27:09.517Z,26.92
2016-08-29T11:28:09.559Z,26.84
2016-08-29T11:29:09.534Z,26.77
2016-08-29T11:30:09.740Z,26.7
2016-08-29T11:31:09.543Z,26.58
2016-08-29T11:32:09.549Z,26.59
2016-08-29T11:33:09.545Z,26.37
2016-08-29T11:34:09.553Z,26.47
2016-08-29T11:35:09.770Z,26.51
2016-08-29T11:36:09.562Z,26.7
2016-08-29T11:37:09.572Z,26.84
2016-08-29T11:38:09.574Z,26.83
2016-08-29T11:39:09.590Z,27.03
2016-08-29T11:40:09.829Z,27.08
2016-08-29T11:41:09.589Z,27.17
2016-08-29T11:42:09.599Z,27.27
2016-08-29T11:43:09.597Z,27.22
2016-08-29T11:44:09.608Z,27.26
2016-08-29T11:45:09.806Z,27.25
2016-08-29T11:46:09.611Z,27.3
2016-08-29T11:47:09.622Z,27.29
2016-08-29T11:48:09.631Z,27.29
2016-08-29T11:49:09.631Z,27.33
2016-08-29T11:50:09.837Z,27.35
2016-08-29T11:51:09.640Z,27.36
2016-08-29T11:52:09.645Z,27.52
2016-08-29T11:53:09.653Z,27.59
2016-08-29T11:54:09.655Z,27.49
2016-08-29T11:55:10.007Z,27.49
2016-08-29T11:56:09.668Z,27.51
2016-08-29T11:57:09.671Z,27.58
2016-08-29T11:58:09.677Z,27.86
2016-08-29T11:59:09.680Z,27.86
2016-08-29T12:00:09.824Z,27.96
2016-08-29T12:01:09.794Z,28.04
2016-08-29T12:02:09.698Z,28.1
2016-08-29T12:03:09.708Z,28.15
2016-08-29T12:04:09.720Z,28.07
2016-08-29T12:05:09.926Z,28.07
2016-08-29T12:06:09.722Z,27.78
2016-08-29T12:07:09.725Z,27.78
2016-08-29T12:08:09.737Z,27.63
2016-08-29T12:09:09.739Z,27.58
2016-08-29T12:10:09.953Z,27.63
2016-08-29T12:11:09.763Z,27.68
2016-08-29T12:12:09.765Z,27.75
2016-08-29T12:13:09.763Z,27.8
2016-08-29T12:14:09.764Z,27.82
2016-08-29T12:15:10.548Z,27.82
2016-08-29T12:16:09.779Z,27.7
2016-08-29T12:17:09.787Z,27.63
2016-08-29T12:18:09.788Z,27.64
2016-08-29T12:19:09.795Z,27.58
2016-08-29T12:20:11.668Z,27.59
2016-08-29T12:21:09.810Z,27.52
2016-08-29T12:22:09.841Z,27.47
2016-08-29T12:23:09.830Z,27.51
2016-08-29T12:24:09.843Z,27.42
2016-08-29T12:25:10.038Z,27.33
2016-08-29T12:26:09.850Z,27.35
2016-08-29T12:27:10.547Z,27.32
2016-08-29T12:28:10.545Z,27.32
2016-08-29T12:29:10.551Z,27.3
2016-08-29T12:30:10.032Z,27.42
2016-08-29T12:31:09.863Z,27.44
2016-08-29T12:32:09.871Z,27.44
2016-08-29T12:33:10.587Z,27.39
2016-08-29T12:34:09.906Z,27.4
2016-08-29T12:35:10.154Z,27.39
2016-08-29T12:36:09.893Z,27.49
2016-08-29T12:37:09.908Z,27.48
2016-08-29T12:38:09.912Z,27.49
2016-08-29T12:39:09.911Z,27.45
2016-08-29T12:40:10.877Z,27.58
2016-08-29T12:41:09.915Z,27.51
2016-08-29T12:42:09.923Z,27.59
2016-08-29T12:43:09.923Z,27.59
2016-08-29T12:44:09.928Z,27.7
2016-08-29T12:45:11.587Z,27.64
2016-08-29T12:46:09.942Z,27.77
2016-08-29T12:47:09.952Z,27.74
2016-08-29T12:48:09.951Z,27.74
2016-08-29T12:49:09.957Z,27.52
2016-08-29T12:50:10.967Z,27.52
2016-08-29T12:51:09.964Z,27.54
2016-08-29T12:52:09.978Z,27.42
2016-08-29T12:53:09.978Z,27.4
2016-08-29T12:54:09.982Z,27.3
2016-08-29T12:55:11.114Z,27.27
2016-08-29T12:56:09.992Z,27.22